createdAt,value
2023-04-09T00:01:26.828Z,44.80
2023-04-09T00:06:30.107Z,45.20
2023-04-09T00:11:33.616Z,41.40
2023-04-09T00:16:37.281Z,38.47
2023-04-09T00:21:40.423Z,36.57
2023-04-09T00:26:43.656Z,42.20
2023-04-09T00:31:47.112Z,39.40
2023-04-09T00:36:50.768Z,39.80
2023-04-09T00:42:04.780Z,40.27
2023-04-09T00:47:08.196Z,43.50
2023-04-09T00:52:11.756Z,44.60
2023-04-09T00:57:16.131Z,40.17
2023-04-09T01:02:19.398Z,43.80
2023-04-09T01:07:51.556Z,43.13
2023-04-09T01:13:03.620Z,41.70
2023-04-09T01:18:12.090Z,39.30
2023-04-09T01:23:32.566Z,43.20
2023-04-09T01:28:43.015Z,39.63
2023-04-09T01:33:47.290Z,42.27
2023-04-09T01:38:52.740Z,39.97
2023-04-09T01:43:56.953Z,46.77
2023-04-09T01:49:00.986Z,46.33
2023-04-09T01:54:05.582Z,52.40
2023-04-09T01:59:08.973Z,44.27
2023-04-09T02:04:25.803Z,50.73
2023-04-09T02:09:32.052Z,47.50
2023-04-09T02:14:37.991Z,48.70
2023-04-09T02:19:46.535Z,49.77
2023-04-09T02:24:49.803Z,57.47
2023-04-09T02:29:53.428Z,54.97
2023-04-09T02:34:56.951Z,47.33
2023-04-09T02:40:00.142Z,46.90
2023-04-09T02:45:03.690Z,48.00
2023-04-09T02:50:07.588Z,46.00
2023-04-09T02:55:10.896Z,51.17
2023-04-09T03:00:15.053Z,46.97
2023-04-09T03:05:18.244Z,42.50
2023-04-09T03:10:21.662Z,38.13
2023-04-09T03:15:25.242Z,46.30
2023-04-09T03:20:28.434Z,45.00
2023-04-09T03:25:31.647Z,44.03
2023-04-09T03:30:35.183Z,47.80
2023-04-09T03:35:38.425Z,48.37
2023-04-09T03:40:43.384Z,42.47
2023-04-09T03:45:46.664Z,52.50
2023-04-09T03:50:49.798Z,48.07
2023-04-09T03:55:53.387Z,51.50
2023-04-09T04:00:56.675Z,57.83
2023-04-09T04:06:04.457Z,53.07
2023-04-09T04:11:07.936Z,60.40
2023-04-09T04:16:11.565Z,57.13
2023-04-09T04:21:16.347Z,50.10
2023-04-09T04:26:19.662Z,55.40
2023-04-09T04:31:23.149Z,57.30
2023-04-09T04:36:26.616Z,57.70
2023-04-09T04:41:30.116Z,54.10
2023-04-09T04:46:33.485Z,53.63
2023-04-09T04:51:37.127Z,54.13
2023-04-09T04:56:40.357Z,56.00
2023-04-09T05:01:43.829Z,50.17
2023-04-09T05:06:47.448Z,44.67
2023-04-09T05:11:50.877Z,49.13
2023-04-09T05:16:54.402Z,43.13
2023-04-09T05:21:57.792Z,42.40
2023-04-09T05:27:01.713Z,36.90
2023-04-09T05:32:05.020Z,36.10
2023-04-09T05:37:08.617Z,35.00
2023-04-09T05:42:11.849Z,36.20
2023-04-09T05:47:15.120Z,36.37
2023-04-09T05:52:18.455Z,33.10
2023-04-09T05:57:21.809Z,36.37
2023-04-09T06:02:25.901Z,37.40
2023-04-09T06:07:29.378Z,44.17
2023-04-09T06:12:35.823Z,41.97
2023-04-09T06:17:40.761Z,41.90
2023-04-09T06:22:44.208Z,45.90
2023-04-09T06:27:47.710Z,43.47
2023-04-09T06:32:54.789Z,46.97
2023-04-09T06:37:58.776Z,41.97
2023-04-09T06:43:01.918Z,43.37
2023-04-09T06:48:05.772Z,43.60
2023-04-09T06:53:09.118Z,41.80
2023-04-09T06:58:12.488Z,44.13
2023-04-09T07:03:15.904Z,47.27
2023-04-09T07:08:19.048Z,49.80
2023-04-09T07:13:22.420Z,43.47
2023-04-09T07:18:25.766Z,47.30
2023-04-09T07:23:29.036Z,40.93
2023-04-09T07:28:32.856Z,41.30
2023-04-09T07:33:36.496Z,42.97
2023-04-09T07:38:39.857Z,46.97
2023-04-09T07:43:43.430Z,40.33
2023-04-09T07:48:48.312Z,46.03
2023-04-09T07:53:51.676Z,43.27
2023-04-09T07:58:55.072Z,42.77
2023-04-09T08:03:58.394Z,38.00
2023-04-09T08:09:02.220Z,39.80
2023-04-09T08:14:06.802Z,41.43
2023-04-09T08:19:10.664Z,38.90
2023-04-09T08:24:14.549Z,40.80
2023-04-09T08:29:17.839Z,42.37
2023-04-09T08:34:22.574Z,45.63
2023-04-09T08:39:25.905Z,46.07
2023-04-09T08:44:30.198Z,38.03
2023-04-09T08:49:33.926Z,35.37
2023-04-09T08:54:38.322Z,36.47
2023-04-09T08:59:41.529Z,32.90
2023-04-09T09:04:49.085Z,33.47
2023-04-09T09:09:53.935Z,36.33
2023-04-09T09:14:57.241Z,30.97
2023-04-09T09:20:14.244Z,31.23
2023-04-09T09:25:17.515Z,28.73
2023-04-09T09:30:27.829Z,32.40
2023-04-09T09:35:31.510Z,27.07
2023-04-09T09:40:34.760Z,31.20
2023-04-09T09:45:38.735Z,28.20
2023-04-09T09:50:43.321Z,24.20
2023-04-09T09:55:52.422Z,25.40
2023-04-09T10:00:57.934Z,25.27
2023-04-09T10:06:03.351Z,26.37
2023-04-09T10:11:08.135Z,23.77
2023-04-09T10:16:11.691Z,23.90
2023-04-09T10:21:14.967Z,21.93
2023-04-09T10:26:19.704Z,23.47
2023-04-09T10:31:22.940Z,24.47
2023-04-09T10:36:28.258Z,25.23
2023-04-09T10:41:34.479Z,23.13
2023-04-09T10:46:37.784Z,24.90
2023-04-09T10:51:41.767Z,25.57
2023-04-09T10:57:07.686Z,30.43
2023-04-09T11:02:18.645Z,25.83
2023-04-09T11:07:25.539Z,27.57
2023-04-09T11:12:28.788Z,28.70
2023-04-09T11:17:37.197Z,29.33
2023-04-09T11:22:40.562Z,30.57
2023-04-09T11:27:47.143Z,32.13
2023-04-09T11:32:51.181Z,27.37
2023-04-09T11:37:54.803Z,33.87
2023-04-09T11:42:58.079Z,31.03
2023-04-09T11:48:03.483Z,33.90
2023-04-09T11:53:21.083Z,31.43
2023-04-09T11:58:26.816Z,33.87
2023-04-09T12:03:33.782Z,31.93
2023-04-09T12:08:38.208Z,30.87
2023-04-09T12:13:45.078Z,29.30
2023-04-09T12:18:48.641Z,30.13
2023-04-09T12:23:51.928Z,28.73
2023-04-09T12:28:55.057Z,29.60
2023-04-09T12:33:58.316Z,30.97
2023-04-09T12:39:01.645Z,29.73
2023-04-09T12:44:05.538Z,28.73
2023-04-09T12:49:09.548Z,33.13
2023-04-09T12:54:12.779Z,30.07
2023-04-09T12:59:16.104Z,30.37
2023-04-09T13:04:19.605Z,30.53
2023-04-09T13:09:22.918Z,27.50
2023-04-09T13:14:26.288Z,27.93
2023-04-09T13:19:29.425Z,32.67
2023-04-09T13:24:32.831Z,28.73
2023-04-09T13:29:36.480Z,27.90
2023-04-09T13:34:40.128Z,27.37
2023-04-09T13:39:45.172Z,25.67
2023-04-09T13:44:48.293Z,31.73
2023-04-09T13:49:54.155Z,29.40
2023-04-09T13:54:57.310Z,31.03
2023-04-09T14:00:04.413Z,28.20
2023-04-09T14:05:08.151Z,26.33
2023-04-09T14:10:11.822Z,27.03
2023-04-09T14:15:15.296Z,27.10
2023-04-09T14:20:21.502Z,28.30
2023-04-09T14:25:24.699Z,29.43
2023-04-09T14:30:28.050Z,29.93
2023-04-09T14:35:31.296Z,31.67
2023-04-09T14:40:34.632Z,31.20
2023-04-09T14:45:38.521Z,33.03
2023-04-09T14:50:43.536Z,32.70
2023-04-09T14:55:46.955Z,24.83
2023-04-09T15:00:50.801Z,31.10
2023-04-09T15:05:54.128Z,32.70
2023-04-09T15:10:57.527Z,32.53
2023-04-09T15:16:00.935Z,31.47
2023-04-09T15:21:04.792Z,33.03
2023-04-09T15:26:08.067Z,26.37
2023-04-09T15:31:11.789Z,28.47
2023-04-09T15:36:15.246Z,27.47
2023-04-09T15:41:18.646Z,31.70
2023-04-09T15:46:22.315Z,29.63
2023-04-09T15:51:27.484Z,26.67
2023-04-09T15:56:30.830Z,29.30
2023-04-09T16:01:36.144Z,30.40
2023-04-09T16:06:40.229Z,30.10
2023-04-09T16:11:43.459Z,25.27
2023-04-09T16:16:50.138Z,23.63
2023-04-09T16:21:54.286Z,24.07
2023-04-09T16:26:58.053Z,29.07
2023-04-09T16:32:01.575Z,25.83
2023-04-09T16:37:05.067Z,91.30
2023-04-09T16:42:08.376Z,38.37
2023-04-09T16:47:11.739Z,27.07
2023-04-09T16:52:15.164Z,29.03
2023-04-09T16:57:18.685Z,26.67
2023-04-09T17:02:22.455Z,31.53
2023-04-09T17:07:26.145Z,31.07
2023-04-09T17:12:29.275Z,48.60
2023-04-09T17:17:33.844Z,38.70
2023-04-09T17:22:38.566Z,36.83
2023-04-09T17:27:44.307Z,38.03
2023-04-09T17:32:48.359Z,28.37
2023-04-09T17:37:51.686Z,30.20
2023-04-09T17:42:56.180Z,36.30
2023-04-09T17:48:00.431Z,65.40
2023-04-09T17:53:04.214Z,66.70
2023-04-09T17:58:07.610Z,64.67
2023-04-09T18:03:13.219Z,66.90
2023-04-09T18:08:16.859Z,61.63
2023-04-09T18:13:20.367Z,57.77
2023-04-09T18:18:23.601Z,52.57
2023-04-09T18:23:27.538Z,45.73
2023-04-09T18:28:30.733Z,47.37
2023-04-09T18:33:34.818Z,42.27
2023-04-09T18:38:38.275Z,42.70
2023-04-09T18:43:41.847Z,44.83
2023-04-09T18:48:47.355Z,43.73
2023-04-09T18:53:53.327Z,59.73
2023-04-09T18:58:57.405Z,41.30
2023-04-09T19:04:00.957Z,33.57
2023-04-09T19:09:05.045Z,33.57
2023-04-09T19:14:09.242Z,34.90
2023-04-09T19:19:13.653Z,38.03
2023-04-09T19:24:16.934Z,38.03
2023-04-09T19:29:21.830Z,40.23
2023-04-09T19:34:25.313Z,46.20
2023-04-09T19:39:29.734Z,43.07
2023-04-09T19:44:33.633Z,43.07
2023-04-09T19:49:37.590Z,35.73
2023-04-09T19:54:41.334Z,27.03
2023-04-09T19:59:44.582Z,22.27
2023-04-09T20:04:48.039Z,19.47
2023-04-09T20:09:52.980Z,21.93
2023-04-09T20:15:00.130Z,14.97
2023-04-09T20:20:07.316Z,16.37
2023-04-09T20:25:14.604Z,14.07
2023-04-09T20:30:18.957Z,15.10
2023-04-09T20:35:22.546Z,13.23
2023-04-09T20:40:25.750Z,16.03
2023-04-09T20:45:29.808Z,11.70
2023-04-09T20:50:33.047Z,16.10
2023-04-09T20:55:37.417Z,11.83
2023-04-09T21:00:40.734Z,14.47
2023-04-09T21:05:44.015Z,14.87
2023-04-09T21:10:47.243Z,14.60
2023-04-09T21:15:50.702Z,14.60
2023-04-09T21:20:54.486Z,9.23
2023-04-09T21:25:57.664Z,10.10
2023-04-09T21:31:01.001Z,11.33
2023-04-09T21:36:05.001Z,10.70
2023-04-09T21:41:08.870Z,12.07
2023-04-09T21:46:12.183Z,9.50
2023-04-09T21:51:15.487Z,11.00
2023-04-09T21:56:18.671Z,8.13
2023-04-09T22:01:29.071Z,10.50
2023-04-09T22:06:32.747Z,11.43
2023-04-09T22:11:36.069Z,11.67
2023-04-09T22:16:39.308Z,8.07
2023-04-09T22:21:42.409Z,7.37
2023-04-09T22:26:47.301Z,7.93
2023-04-09T22:31:50.530Z,7.97
2023-04-09T22:36:53.872Z,12.03
2023-04-09T22:41:57.154Z,11.03
2023-04-09T22:47:00.427Z,9.40
2023-04-09T22:52:03.822Z,8.97
2023-04-09T22:57:07.110Z,7.73
2023-04-09T23:02:10.855Z,10.67
2023-04-09T23:07:14.881Z,7.70
2023-04-09T23:12:18.459Z,6.67
2023-04-09T23:17:23.117Z,10.30
2023-04-09T23:22:27.614Z,7.27
2023-04-09T23:27:30.848Z,9.87
2023-04-09T23:32:34.126Z,8.87
2023-04-09T23:37:37.892Z,7.93
2023-04-09T23:42:41.195Z,14.03
2023-04-09T23:47:44.846Z,14.83
2023-04-09T23:52:50.057Z,17.80
2023-04-09T23:57:53.399Z,14.67
